createdAt,value
2019-04-30T00:04:42.241Z,1.80
2019-04-30T00:09:49.222Z,2.00
2019-04-30T00:14:51.470Z,1.32
2019-04-30T00:19:58.742Z,1.42
2019-04-30T00:25:00.205Z,1.80
2019-04-30T00:30:08.935Z,1.57
2019-04-30T00:35:11.870Z,1.73
2019-04-30T00:40:15.932Z,1.63
2019-04-30T00:45:19.393Z,1.57
2019-04-30T00:50:24.795Z,1.50
2019-04-30T00:55:28.083Z,1.55
2019-04-30T01:00:35.249Z,1.72
2019-04-30T01:05:39.537Z,1.60
2019-04-30T01:10:46.024Z,1.60
2019-04-30T01:15:52.486Z,1.37
2019-04-30T01:20:54.934Z,1.55
2019-04-30T01:25:58.663Z,1.30
2019-04-30T01:31:02.152Z,1.50
2019-04-30T01:36:09.738Z,1.67
2019-04-30T01:41:10.946Z,1.40
2019-04-30T01:46:14.412Z,1.67
2019-04-30T01:51:21.696Z,1.47
2019-04-30T01:56:24.701Z,1.32
2019-04-30T02:01:31.197Z,1.50
2019-04-30T02:06:34.747Z,1.25
2019-04-30T02:11:38.863Z,1.57
2019-04-30T02:16:42.351Z,1.42
2019-04-30T02:21:45.816Z,1.20
2019-04-30T02:26:49.274Z,1.70
2019-04-30T02:31:52.736Z,1.42
2019-04-30T02:37:03.857Z,1.50
2019-04-30T02:42:09.678Z,1.12
2019-04-30T02:47:15.874Z,1.50
2019-04-30T02:52:21.117Z,1.10
2019-04-30T02:57:24.579Z,0.95
2019-04-30T03:02:29.162Z,1.30
2019-04-30T03:07:32.844Z,1.22
2019-04-30T03:12:36.300Z,1.32
2019-04-30T03:17:43.791Z,1.42
2019-04-30T03:22:47.256Z,1.30
2019-04-30T03:27:50.722Z,1.10
2019-04-30T03:32:56.801Z,1.25
2019-04-30T03:37:59.302Z,1.20
2019-04-30T03:43:03.033Z,1.35
2019-04-30T03:48:09.930Z,1.27
2019-04-30T03:53:11.938Z,1.30
2019-04-30T03:58:15.402Z,1.42
2019-04-30T04:03:20.102Z,1.00
2019-04-30T04:08:29.368Z,1.22
2019-04-30T04:13:33.255Z,1.20
2019-04-30T04:18:36.733Z,1.00
2019-04-30T04:23:40.202Z,1.20
2019-04-30T04:28:43.733Z,1.30
2019-04-30T04:33:49.686Z,1.10
2019-04-30T04:38:52.383Z,1.30
2019-04-30T04:43:55.845Z,1.03
2019-04-30T04:48:59.714Z,1.10
2019-04-30T04:54:03.598Z,1.25
2019-04-30T04:59:07.148Z,1.20
2019-04-30T05:04:11.752Z,1.35
2019-04-30T05:09:15.458Z,1.10
2019-04-30T05:14:19.113Z,1.07
2019-04-30T05:19:22.661Z,1.27
2019-04-30T05:24:26.116Z,0.98
2019-04-30T05:29:29.580Z,1.10
2019-04-30T05:34:33.040Z,1.20
2019-04-30T05:39:36.512Z,0.90
2019-04-30T05:44:39.969Z,0.98
2019-04-30T05:49:43.431Z,1.30
2019-04-30T05:54:48.666Z,1.10
2019-04-30T05:59:52.098Z,1.05
2019-04-30T06:04:55.562Z,0.93
2019-04-30T06:10:00.676Z,1.17
2019-04-30T06:15:15.756Z,1.00
2019-04-30T06:20:21.098Z,0.83
2019-04-30T06:25:35.491Z,0.85
2019-04-30T06:30:31.109Z,0.95
2019-04-30T06:35:34.566Z,2.25
2019-04-30T06:40:39.124Z,2.00
2019-04-30T06:45:42.689Z,2.10
2019-04-30T06:50:46.144Z,2.20
2019-04-30T06:55:50.377Z,1.90
2019-04-30T07:00:53.836Z,1.90
2019-04-30T07:05:58.647Z,2.08
2019-04-30T07:11:20.231Z,1.77
2019-04-30T07:16:23.705Z,2.60
2019-04-30T07:21:31.259Z,1.87
2019-04-30T07:26:32.421Z,2.00
2019-04-30T07:31:35.878Z,1.57
2019-04-30T07:36:48.430Z,1.87
2019-04-30T07:41:44.522Z,1.40
2019-04-30T07:46:49.339Z,1.67
2019-04-30T07:51:53.708Z,1.50
2019-04-30T07:57:00.219Z,1.60
2019-04-30T08:02:10.105Z,1.95
2019-04-30T08:07:09.756Z,1.42
2019-04-30T08:12:22.140Z,1.92
2019-04-30T08:17:18.862Z,1.47
2019-04-30T08:22:22.436Z,1.60
2019-04-30T08:27:25.899Z,1.47
2019-04-30T08:32:29.362Z,1.60
2019-04-30T08:37:32.828Z,1.90
2019-04-30T08:42:39.172Z,1.70
2019-04-30T08:47:41.474Z,1.62
2019-04-30T08:52:44.956Z,1.57
2019-04-30T08:57:50.047Z,1.90
2019-04-30T09:02:53.650Z,1.30
2019-04-30T09:07:57.108Z,1.50
2019-04-30T09:13:00.587Z,1.72
2019-04-30T09:18:08.241Z,2.17
2019-04-30T09:23:11.273Z,1.80
2019-04-30T09:28:14.886Z,1.90
2019-04-30T09:33:19.448Z,2.65
2019-04-30T09:38:23.016Z,1.95
2019-04-30T09:43:28.497Z,1.60
2019-04-30T09:48:31.693Z,1.90
2019-04-30T09:53:35.237Z,1.77
2019-04-30T09:58:39.369Z,2.20
2019-04-30T10:03:43.471Z,2.08
2019-04-30T10:08:50.571Z,2.08
2019-04-30T10:13:52.338Z,2.70
2019-04-30T10:18:55.814Z,2.75
2019-04-30T10:24:12.575Z,2.35
2019-04-30T10:29:05.133Z,1.87
2019-04-30T10:34:09.708Z,2.10
2019-04-30T10:39:13.443Z,2.85
2019-04-30T10:44:18.691Z,1.77
2019-04-30T10:49:22.334Z,2.42
2019-04-30T10:54:26.546Z,2.27
2019-04-30T10:59:31.015Z,2.17
2019-04-30T11:04:34.494Z,2.33
2019-04-30T11:09:39.367Z,2.42
2019-04-30T11:14:43.102Z,1.70
2019-04-30T11:19:46.760Z,2.22
2019-04-30T11:24:59.105Z,1.90
2019-04-30T11:30:01.514Z,2.00
2019-04-30T11:35:01.272Z,1.80
2019-04-30T11:40:10.347Z,2.38
2019-04-30T11:45:16.866Z,1.90
2019-04-30T11:50:20.609Z,2.13
2019-04-30T11:55:24.085Z,1.47
2019-04-30T12:00:29.687Z,1.45
2019-04-30T12:05:33.265Z,1.32
2019-04-30T12:10:44.104Z,1.15
2019-04-30T12:15:50.049Z,1.50
2019-04-30T12:20:52.751Z,1.30
2019-04-30T12:25:56.210Z,1.12
2019-04-30T12:30:59.672Z,1.30
2019-04-30T12:36:03.196Z,1.15
2019-04-30T12:41:05.651Z,1.37
2019-04-30T12:46:09.055Z,1.10
2019-04-30T12:51:29.994Z,1.22
2019-04-30T12:56:38.054Z,1.20
2019-04-30T13:01:41.787Z,1.20
2019-04-30T13:06:48.047Z,1.15
2019-04-30T13:11:51.553Z,1.03
2019-04-30T13:16:55.377Z,1.22
2019-04-30T13:21:58.831Z,1.35
2019-04-30T13:27:02.289Z,1.57
2019-04-30T13:32:05.824Z,1.10
2019-04-30T13:37:09.376Z,1.00
2019-04-30T13:42:17.690Z,1.20
2019-04-30T13:47:19.648Z,1.20
2019-04-30T13:52:24.013Z,1.52
2019-04-30T13:57:27.468Z,1.50
2019-04-30T14:02:32.578Z,1.10
2019-04-30T14:07:43.678Z,1.22
2019-04-30T14:12:51.450Z,1.42
2019-04-30T14:17:54.914Z,1.07
2019-04-30T14:22:58.374Z,0.90
2019-04-30T14:28:01.832Z,1.30
2019-04-30T14:33:05.295Z,0.93
2019-04-30T14:38:09.160Z,1.05
2019-04-30T14:43:15.040Z,1.47
2019-04-30T14:48:23.387Z,1.17
2019-04-30T14:53:36.165Z,1.00
2019-04-30T14:58:41.265Z,1.00
2019-04-30T15:03:44.729Z,1.02
2019-04-30T15:08:49.472Z,0.90
2019-04-30T15:13:53.037Z,1.12
2019-04-30T15:18:56.489Z,1.02
2019-04-30T15:24:01.819Z,0.95
2019-04-30T15:29:11.797Z,1.00
2019-04-30T15:34:12.054Z,0.82
2019-04-30T15:39:17.163Z,1.00
2019-04-30T15:44:20.636Z,1.20
2019-04-30T15:49:24.122Z,1.15
2019-04-30T15:54:29.262Z,1.35
2019-04-30T15:59:40.464Z,1.10
2019-04-30T16:04:45.579Z,1.17
2019-04-30T16:10:05.458Z,0.80
2019-04-30T16:15:10.063Z,1.10
2019-04-30T16:20:13.901Z,0.98
2019-04-30T16:25:19.301Z,0.80
2019-04-30T16:30:23.014Z,0.98
2019-04-30T16:35:26.492Z,2.27
2019-04-30T16:40:29.979Z,1.10
2019-04-30T16:45:33.527Z,0.90
2019-04-30T16:50:37.005Z,1.17
2019-04-30T16:55:40.478Z,0.90
2019-04-30T17:00:44.096Z,1.10
2019-04-30T17:05:49.910Z,1.10
2019-04-30T17:10:55.210Z,1.05
2019-04-30T17:16:00.330Z,0.93
2019-04-30T17:21:03.878Z,1.40
2019-04-30T17:26:07.354Z,0.85
2019-04-30T17:31:13.404Z,1.12
2019-04-30T17:36:16.038Z,0.90
2019-04-30T17:41:19.511Z,1.02
2019-04-30T17:46:24.075Z,0.90
2019-04-30T17:51:27.554Z,1.12
2019-04-30T17:56:31.026Z,1.37
2019-04-30T18:01:34.521Z,1.35
2019-04-30T18:06:38.052Z,1.22
2019-04-30T18:11:41.528Z,1.47
2019-04-30T18:16:45.059Z,1.30
2019-04-30T18:22:02.201Z,1.17
2019-04-30T18:27:07.300Z,1.37
2019-04-30T18:32:10.757Z,1.30
2019-04-30T18:37:14.212Z,1.17
2019-04-30T18:42:19.346Z,1.10
2019-04-30T18:47:23.082Z,1.10
2019-04-30T18:52:26.543Z,1.02
2019-04-30T18:57:30.003Z,1.30
2019-04-30T19:02:33.463Z,1.10
2019-04-30T19:07:41.215Z,1.37
2019-04-30T19:12:52.032Z,1.30
2019-04-30T19:18:14.876Z,1.35
2019-04-30T19:23:19.083Z,1.05
2019-04-30T19:28:22.676Z,1.62
2019-04-30T19:33:26.145Z,1.00
2019-04-30T19:38:29.602Z,1.20
2019-04-30T19:43:33.056Z,1.10
2019-04-30T19:48:36.516Z,1.45
2019-04-30T19:53:39.972Z,1.20
2019-04-30T19:58:52.542Z,1.10
2019-04-30T20:03:48.687Z,1.30
2019-04-30T20:08:52.146Z,1.10
2019-04-30T20:13:55.611Z,1.40
2019-04-30T20:18:59.262Z,1.30
2019-04-30T20:24:02.705Z,1.00
2019-04-30T20:29:06.161Z,1.27
2019-04-30T20:34:09.634Z,0.98
2019-04-30T20:39:16.042Z,1.00
2019-04-30T20:44:19.558Z,1.45
2019-04-30T20:49:24.879Z,1.10
2019-04-30T20:54:29.124Z,1.10
2019-04-30T20:59:32.745Z,1.05
2019-04-30T21:04:36.217Z,1.20
2019-04-30T21:09:39.664Z,0.93
2019-04-30T21:14:43.124Z,1.00
2019-04-30T21:19:46.585Z,1.00
2019-04-30T21:24:50.037Z,1.25
2019-04-30T21:29:53.499Z,1.00
2019-04-30T21:35:04.031Z,1.00
2019-04-30T21:40:09.662Z,1.17
2019-04-30T21:45:13.153Z,1.27
2019-04-30T21:50:16.754Z,1.20
2019-04-30T21:55:20.285Z,1.20
2019-04-30T22:00:25.726Z,1.23
2019-04-30T22:05:29.254Z,1.00
2019-04-30T22:10:32.781Z,1.02
2019-04-30T22:15:36.311Z,0.80
2019-04-30T22:20:39.774Z,1.10
2019-04-30T22:25:43.232Z,1.05
2019-04-30T22:30:48.361Z,1.00
2019-04-30T22:35:59.329Z,1.17
2019-04-30T22:41:02.785Z,1.00
2019-04-30T22:46:09.633Z,1.15
2019-04-30T22:51:12.395Z,1.20
2019-04-30T22:56:15.794Z,0.93
2019-04-30T23:01:26.049Z,1.10
2019-04-30T23:06:28.445Z,1.10
2019-04-30T23:11:31.838Z,0.90
2019-04-30T23:16:35.298Z,1.20
2019-04-30T23:21:39.201Z,1.07
2019-04-30T23:26:42.654Z,1.20
2019-04-30T23:31:46.122Z,1.05
2019-04-30T23:36:49.582Z,1.20
2019-04-30T23:41:53.041Z,1.37
2019-04-30T23:46:56.501Z,1.32
2019-04-30T23:51:59.965Z,0.93
2019-04-30T23:57:03.428Z,1.02
